Time;durP1;ratioP1;P1;durP2;ratioP2;P2;SDS_P1;SDS_P2;PMS_P1;PMS_P2;Temp;Humidity;BMP_temperature;BMP_pressure;BME280_temperature;BME280_humidity;BME280_pressure;Samples;Min_cycle;Max_cycle;Signal;HPM_P1;HPM_P2
2023/01/19 00:02:22;;;;;;;9.57;4.40;;;;;-7.30;92730.00;;;;7396678;19;20140;-74
2023/01/19 00:04:58;;;;;;;14.80;4.87;;;;;-7.20;92731.00;;;;7399340;19;20150;-74
2023/01/19 00:07:25;;;;;;;8.23;4.97;;;;;-7.20;92733.00;;;;7397629;19;20153;-74
2023/01/19 00:09:59;;;;;;;8.17;4.50;;;;;-6.90;92745.00;;;;7399400;19;20583;-74
2023/01/19 00:12:27;;;;;;;8.80;4.97;;;;;-6.80;92745.00;;;;7398888;19;20200;-74
2023/01/19 00:15:01;;;;;;;8.73;4.97;;;;;-6.70;92747.00;;;;7399584;19;20132;-74
2023/01/19 00:17:35;;;;;;;10.03;5.27;;;;;-6.40;92740.00;;;;7396032;19;20168;-74
2023/01/19 00:20:10;;;;;;;9.30;5.50;;;;;-6.30;92744.00;;;;7400238;19;20426;-74
2023/01/19 00:22:38;;;;;;;10.53;5.77;;;;;-6.20;92745.00;;;;7398492;19;20119;-74
2023/01/19 00:25:12;;;;;;;9.53;5.47;;;;;-6.10;92733.00;;;;7393541;19;20144;-74
2023/01/19 00:27:39;;;;;;;10.17;5.83;;;;;-6.00;92741.00;;;;7399457;19;20201;-74
2023/01/19 00:30:14;;;;;;;13.17;5.30;;;;;-6.30;92745.00;;;;7388941;19;20166;-74
2023/01/19 00:32:48;;;;;;;9.63;5.47;;;;;-6.50;92734.00;;;;7398375;19;20461;-74
2023/01/19 00:35:22;;;;;;;9.83;5.10;;;;;-6.70;92734.00;;;;7398935;19;20140;-74
2023/01/19 00:37:50;;;;;;;7.90;4.93;;;;;-6.90;92743.00;;;;7397687;19;20141;-75
2023/01/19 00:40:24;;;;;;;8.77;4.90;;;;;-6.90;92745.00;;;;7399663;19;20480;-74
2023/01/19 00:42:53;;;;;;;9.53;5.63;;;;;-6.90;92743.00;;;;7397693;19;20132;-74
2023/01/19 00:45:28;;;;;;;9.27;4.90;;;;;-6.80;92742.00;;;;7399337;19;20120;-74
2023/01/19 00:48:02;;;;;;;9.33;4.70;;;;;-7.10;92740.00;;;;7398224;19;20458;-74
2023/01/19 00:50:36;;;;;;;9.10;4.50;;;;;-7.30;92733.00;;;;7398085;19;20543;-75
2023/01/19 00:53:04;;;;;;;6.07;4.13;;;;;-7.30;92738.00;;;;7398923;19;20261;-74
2023/01/19 00:55:38;;;;;;;8.30;4.30;;;;;-7.40;92744.00;;;;7397786;19;20208;-74
2023/01/19 00:58:06;;;;;;;7.57;4.17;;;;;-7.40;92746.00;;;;7397079;19;20591;-74
2023/01/19 01:00:43;;;;;;;10.73;4.60;;;;;-7.50;92766.00;;;;7396549;19;20144;-79
2023/01/19 01:03:18;;;;;;;7.20;4.43;;;;;-7.50;92755.00;;;;7397644;19;20599;-79
2023/01/19 01:05:52;;;;;;;6.73;3.77;;;;;-7.40;92762.00;;;;7398916;19;20451;-79
2023/01/19 01:08:19;;;;;;;8.47;4.20;;;;;-7.10;92756.00;;;;7398330;19;20586;-79
2023/01/19 01:10:54;;;;;;;7.00;4.23;;;;;-6.90;92751.00;;;;7396362;19;20183;-79
2023/01/19 01:13:21;;;;;;;8.27;4.27;;;;;-6.80;92751.00;;;;7398528;19;20121;-79
2023/01/19 01:15:56;;;;;;;9.60;4.07;;;;;-6.80;92759.00;;;;7397717;19;20148;-79
2023/01/19 01:18:37;;;;;;;13.07;4.43;;;;;-7.00;92761.00;;;;7398254;19;20167;-79
2023/01/19 01:21:11;;;;;;;6.80;4.00;;;;;-7.20;92756.00;;;;7398043;19;20204;-79
2023/01/19 01:23:47;;;;;;;8.43;4.13;;;;;-7.30;92762.00;;;;7394839;19;20627;-78
2023/01/19 01:26:14;;;;;;;8.60;4.20;;;;;-7.40;92760.00;;;;7398019;19;20132;-79
2023/01/19 01:28:49;;;;;;;7.90;3.50;;;;;-7.50;92760.00;;;;7397785;19;20579;-79
2023/01/19 01:31:24;;;;;;;7.30;3.70;;;;;-7.50;92763.00;;;;7398632;19;20128;-79
2023/01/19 01:33:57;;;;;;;8.37;3.83;;;;;-7.70;92760.00;;;;7397410;19;20132;-79
2023/01/19 01:36:27;;;;;;;10.37;4.27;;;;;-7.60;92771.00;;;;7397948;19;20655;-79
2023/01/19 01:39:02;;;;;;;6.30;3.37;;;;;-7.20;92761.00;;;;7395873;19;20532;-79
2023/01/19 01:41:36;;;;;;;6.87;3.83;;;;;-7.20;92770.00;;;;7396301;19;20606;-79
2023/01/19 01:44:49;;;;;;;9.67;4.70;;;;;-7.00;92769.00;;;;7397187;19;20210;-79
2023/01/19 01:47:19;;;;;;;5.53;3.13;;;;;-6.80;92769.00;;;;7397664;19;20526;-79
2023/01/19 01:50:00;;;;;;;5.97;3.70;;;;;-6.70;92762.00;;;;7397463;19;20613;-79
2023/01/19 01:52:40;;;;;;;10.00;3.13;;;;;-6.80;92768.00;;;;7397422;19;20564;-79
2023/01/19 01:55:09;;;;;;;8.33;3.33;;;;;-6.30;92758.00;;;;7396666;19;20125;-79
2023/01/19 01:57:53;;;;;;;5.93;3.33;;;;;-6.00;92760.00;;;;7397764;19;20146;-79
2023/01/19 02:02:49;;;;;;;5.90;3.10;;;;;-6.00;92764.00;;;;7396079;19;20154;-79
2023/01/19 02:03:17;;;;;;;7.50;3.63;;;;;-5.70;92765.00;;;;7395279;19;20145;-79
2023/01/19 02:05:56;;;;;;;7.20;3.93;;;;;-5.50;92752.00;;;;7397655;19;20121;-79
2023/01/19 02:14:26;;;;;;;8.83;4.23;;;;;-5.80;92751.00;;;;7397019;19;20133;-79
2023/01/19 02:17:07;;;;;;;6.20;3.80;;;;;-5.50;92752.00;;;;7399734;19;20144;-79
2023/01/19 02:19:40;;;;;;;7.10;3.93;;;;;-5.60;92756.00;;;;7403756;19;20137;-79
2023/01/19 02:22:46;;;;;;;7.83;3.70;;;;;-5.50;92753.00;;;;7402762;19;20132;-79
2023/01/19 02:25:14;;;;;;;6.87;4.07;;;;;-5.70;92754.00;;;;7403482;19;20145;-79
2023/01/19 02:27:49;;;;;;;4.17;3.20;;;;;-6.20;92756.00;;;;7404426;19;20117;-79
2023/01/19 02:30:23;;;;;;;6.27;3.37;;;;;-6.70;92750.00;;;;7404247;19;20117;-79
2023/01/19 02:32:52;;;;;;;6.27;3.10;;;;;-7.00;92755.00;;;;7404191;19;20133;-79
2023/01/19 02:35:26;;;;;;;5.43;2.57;;;;;-7.30;92753.00;;;;7404668;19;20149;-79
2023/01/19 02:38:02;;;;;;;4.40;2.67;;;;;-7.40;92762.00;;;;7403846;19;20188;-79
2023/01/19 02:40:41;;;;;;;4.60;2.60;;;;;-7.20;92757.00;;;;7403618;19;20210;-79
2023/01/19 02:43:18;;;;;;;4.83;2.80;;;;;-6.90;92760.00;;;;7402616;19;20142;-79
2023/01/19 02:45:53;;;;;;;7.13;2.97;;;;;-6.60;92756.00;;;;7404237;19;20516;-79
2023/01/19 02:48:21;;;;;;;4.40;2.87;;;;;-6.60;92760.00;;;;7403272;19;20144;-79
2023/01/19 02:51:03;;;;;;;7.00;3.60;;;;;-6.60;92760.00;;;;7404821;19;20596;-79
2023/01/19 02:53:44;;;;;;;7.93;3.80;;;;;-6.60;92753.00;;;;7404029;19;20131;-79
2023/01/19 02:56:55;;;;;;;5.57;3.30;;;;;-6.50;92759.00;;;;7404018;19;20128;-79
2023/01/19 02:59:52;;;;;;;4.07;2.90;;;;;-6.60;92763.00;;;;7401129;19;20133;-79
2023/01/19 03:02:57;;;;;;;5.87;3.00;;;;;-6.80;92762.00;;;;7400947;19;20137;-79
2023/01/19 03:06:01;;;;;;;4.97;3.53;;;;;-6.90;92757.00;;;;7404075;19;20137;-79
2023/01/19 03:09:11;;;;;;;5.50;3.00;;;;;-7.10;92760.00;;;;7402614;19;20481;-79
2023/01/19 03:11:53;;;;;;;6.03;3.47;;;;;-7.30;92761.00;;;;7403252;19;20141;-79
2023/01/19 03:14:29;;;;;;;3.97;2.67;;;;;-7.30;92772.00;;;;7403452;19;20125;-80
2023/01/19 03:17:16;;;;;;;7.40;3.33;;;;;-7.10;92769.00;;;;7401630;19;20216;-79
2023/01/19 03:19:49;;;;;;;5.57;2.83;;;;;-7.00;92774.00;;;;7402705;19;20192;-79
2023/01/19 03:22:28;;;;;;;4.43;2.67;;;;;-6.90;92772.00;;;;7402589;19;20113;-79
2023/01/19 03:25:03;;;;;;;4.93;2.97;;;;;-7.00;92780.00;;;;7401861;19;20192;-79
2023/01/19 03:27:39;;;;;;;9.30;3.30;;;;;-7.10;92770.00;;;;7400624;19;20141;-79
2023/01/19 03:30:23;;;;;;;5.20;2.83;;;;;-7.10;92772.00;;;;7402567;19;20145;-79
2023/01/19 03:33:11;;;;;;;6.93;3.13;;;;;-7.20;92770.00;;;;7403088;19;20150;-79
2023/01/19 03:35:51;;;;;;;6.37;2.90;;;;;-7.40;92776.00;;;;7401764;19;20132;-79
2023/01/19 03:38:25;;;;;;;4.40;2.63;;;;;-7.40;92784.00;;;;7402837;19;20145;-79
2023/01/19 03:41:01;;;;;;;6.57;2.73;;;;;-7.40;92778.00;;;;7401318;19;20207;-80
2023/01/19 03:43:30;;;;;;;5.40;2.77;;;;;-7.40;92783.00;;;;7399555;19;20136;-79
2023/01/19 03:46:10;;;;;;;4.63;2.53;;;;;-7.40;92779.00;;;;7403047;19;20146;-79
2023/01/19 03:48:45;;;;;;;8.23;2.83;;;;;-7.40;92779.00;;;;7400886;19;20129;-79
2023/01/19 03:51:21;;;;;;;4.77;2.90;;;;;-7.40;92781.00;;;;7402460;19;20136;-79
2023/01/19 03:54:00;;;;;;;5.87;3.27;;;;;-7.40;92786.00;;;;7401221;19;20143;-79
2023/01/19 03:56:27;;;;;;;7.77;3.03;;;;;-7.30;92782.00;;;;7402468;19;20605;-79
2023/01/19 03:59:07;;;;;;;5.63;2.90;;;;;-7.30;92792.00;;;;7402523;19;20595;-79
2023/01/19 04:01:43;;;;;;;7.97;3.30;;;;;-7.40;92792.00;;;;7402113;19;20481;-79
2023/01/19 04:04:17;;;;;;;5.30;2.97;;;;;-7.40;92796.00;;;;7398700;19;20136;-79
2023/01/19 04:06:44;;;;;;;5.50;2.60;;;;;-7.50;92798.00;;;;7401871;19;20148;-79
2023/01/19 04:09:18;;;;;;;5.30;3.20;;;;;-7.40;92792.00;;;;7401440;19;20131;-79
2023/01/19 04:11:52;;;;;;;9.20;3.40;;;;;-7.40;92797.00;;;;7401144;19;20141;-79
2023/01/19 04:14:20;;;;;;;4.20;2.60;;;;;-7.50;92791.00;;;;7402604;19;20599;-79
2023/01/19 04:16:54;;;;;;;6.33;3.13;;;;;-7.60;92793.00;;;;7399481;19;20155;-79
2023/01/19 04:19:28;;;;;;;4.47;2.87;;;;;-7.70;92797.00;;;;7400887;19;20144;-79
2023/01/19 04:21:56;;;;;;;5.33;3.03;;;;;-7.60;92800.00;;;;7399968;19;20188;-79
2023/01/19 04:24:30;;;;;;;4.40;2.77;;;;;-7.50;92803.00;;;;7399358;19;20579;-78
2023/01/19 04:27:04;;;;;;;8.03;3.17;;;;;-7.70;92801.00;;;;7400791;19;20622;-79
2023/01/19 04:29:32;;;;;;;8.27;3.50;;;;;-7.60;92796.00;;;;7400866;19;20519;-79
2023/01/19 04:32:06;;;;;;;5.50;3.27;;;;;-7.70;92803.00;;;;7400959;19;20128;-79
2023/01/19 04:34:36;;;;;;;7.43;3.00;;;;;-7.60;92802.00;;;;7400682;19;20133;-78
2023/01/19 04:37:13;;;;;;;5.57;3.53;;;;;-7.30;92798.00;;;;7400575;19;20136;-79
2023/01/19 04:39:47;;;;;;;6.67;3.80;;;;;-7.20;92794.00;;;;7398395;19;20144;-79
2023/01/19 04:42:15;;;;;;;5.93;3.30;;;;;-7.30;92797.00;;;;7400707;19;20133;-79
2023/01/19 04:44:52;;;;;;;6.80;3.10;;;;;-7.20;92793.00;;;;7398626;19;20138;-79
2023/01/19 04:47:21;;;;;;;4.67;3.00;;;;;-7.20;92786.00;;;;7400686;19;20147;-79
2023/01/19 04:49:48;;;;;;;7.47;3.10;;;;;-7.30;92800.00;;;;7400172;19;20232;-78
2023/01/19 04:52:22;;;;;;;6.00;2.70;;;;;-7.40;92798.00;;;;7399857;19;20656;-79
2023/01/19 04:54:49;;;;;;;6.90;3.00;;;;;-7.40;92798.00;;;;7399125;19;20509;-79
2023/01/19 04:57:24;;;;;;;5.17;3.13;;;;;-7.30;92799.00;;;;7397885;19;20129;-79
2023/01/19 04:59:51;;;;;;;6.00;3.50;;;;;-7.50;92807.00;;;;7399985;19;20571;-79
2023/01/19 05:02:25;;;;;;;9.83;3.10;;;;;-7.60;92799.00;;;;7397572;19;20147;-79
2023/01/19 05:04:59;;;;;;;3.80;2.63;;;;;-7.50;92800.00;;;;7398428;19;20628;-79
2023/01/19 05:07:27;;;;;;;4.60;2.50;;;;;-7.50;92796.00;;;;7400152;19;20477;-79
2023/01/19 05:10:08;;;;;;;6.37;3.17;;;;;-7.70;92789.00;;;;7398527;19;20151;-79
2023/01/19 05:12:36;;;;;;;5.07;3.03;;;;;-7.80;92797.00;;;;7400893;19;20439;-79
2023/01/19 05:15:10;;;;;;;4.20;2.90;;;;;-8.00;92802.00;;;;7400182;19;20195;-79
2023/01/19 05:17:45;;;;;;;5.57;2.97;;;;;-8.00;92811.00;;;;7399319;19;20199;-81
2023/01/19 05:20:19;;;;;;;5.73;2.83;;;;;-7.90;92809.00;;;;7399766;19;20577;-78
2023/01/19 05:22:56;;;;;;;4.27;2.83;;;;;-7.90;92804.00;;;;7399574;19;20121;-80
2023/01/19 05:25:25;;;;;;;6.67;3.10;;;;;-8.00;92812.00;;;;7397185;19;20151;-80
2023/01/19 05:27:58;;;;;;;5.73;2.80;;;;;-7.90;92811.00;;;;7398263;19;20125;-79
2023/01/19 05:30:32;;;;;;;4.20;2.87;;;;;-7.80;92806.00;;;;7399929;19;20540;-79
2023/01/19 05:33:00;;;;;;;5.90;3.00;;;;;-7.90;92805.00;;;;7400077;19;20595;-79
2023/01/19 05:35:34;;;;;;;4.67;2.97;;;;;-7.70;92810.00;;;;7398817;19;20133;-79
2023/01/19 05:38:03;;;;;;;8.40;2.97;;;;;-7.90;92802.00;;;;7398988;19;20136;-79
2023/01/19 05:40:37;;;;;;;4.43;2.70;;;;;-8.00;92809.00;;;;7397200;19;20131;-79
2023/01/19 05:43:12;;;;;;;5.10;2.57;;;;;-7.90;92807.00;;;;7398614;19;20146;-79
2023/01/19 05:45:42;;;;;;;4.80;2.60;;;;;-8.00;92817.00;;;;7398684;19;20127;-79
2023/01/19 05:48:17;;;;;;;5.10;3.00;;;;;-7.80;92823.00;;;;7397108;19;20140;-79
2023/01/19 05:50:48;;;;;;;5.00;3.10;;;;;-7.70;92820.00;;;;7398756;19;20140;-79
2023/01/19 05:53:22;;;;;;;5.73;2.87;;;;;-7.70;92828.00;;;;7404145;19;20134;-79
2023/01/19 05:55:51;;;;;;;6.67;2.60;;;;;-7.50;92829.00;;;;7404839;19;20136;-79
2023/01/19 05:58:33;;;;;;;3.43;2.40;;;;;-7.30;92832.00;;;;7405538;19;20639;-79
2023/01/19 06:01:05;;;;;;;5.33;2.93;;;;;-6.90;92833.00;;;;7403668;19;20132;-79
2023/01/19 06:03:39;;;;;;;5.10;2.67;;;;;-6.80;92831.00;;;;7403942;19;20132;-79
2023/01/19 06:06:14;;;;;;;6.17;2.77;;;;;-6.70;92834.00;;;;7405276;19;20467;-78
2023/01/19 06:08:48;;;;;;;7.30;3.10;;;;;-6.90;92841.00;;;;7404053;19;20144;-79
2023/01/19 06:11:22;;;;;;;5.67;2.97;;;;;-7.20;92842.00;;;;7404926;19;20149;-79
2023/01/19 06:13:49;;;;;;;5.87;3.37;;;;;-7.40;92836.00;;;;7405577;19;20569;-79
2023/01/19 06:16:37;;;;;;;3.97;2.80;;;;;-7.60;92837.00;;;;7405327;19;20128;-78
2023/01/19 06:19:12;;;;;;;6.37;3.97;;;;;-7.80;92847.00;;;;7406015;19;20460;-79
2023/01/19 06:21:50;;;;;;;5.90;3.27;;;;;-7.60;92846.00;;;;7403625;19;20132;-79
2023/01/19 06:24:18;;;;;;;4.63;2.90;;;;;-7.50;92835.00;;;;7404287;19;20132;-79
2023/01/19 06:26:53;;;;;;;5.10;3.00;;;;;-7.40;92834.00;;;;7403651;19;20149;-79
2023/01/19 06:29:21;;;;;;;4.83;2.47;;;;;-7.50;92840.00;;;;7404602;19;20139;-79
2023/01/19 06:31:56;;;;;;;5.93;2.80;;;;;-7.50;92848.00;;;;7404293;19;20124;-79
2023/01/19 06:34:30;;;;;;;6.03;3.30;;;;;-7.70;92841.00;;;;7404477;19;20150;-79
2023/01/19 06:36:58;;;;;;;5.07;2.80;;;;;-7.80;92847.00;;;;7404969;19;20197;-79
2023/01/19 06:39:32;;;;;;;3.63;2.67;;;;;-7.70;92842.00;;;;7404571;19;20128;-79
2023/01/19 06:41:59;;;;;;;5.10;2.63;;;;;-7.40;92852.00;;;;7403199;19;20197;-79
2023/01/19 06:44:33;;;;;;;6.77;3.20;;;;;-7.30;92855.00;;;;7401436;19;20147;-79
2023/01/19 06:47:03;;;;;;;4.07;2.60;;;;;-7.20;92854.00;;;;7404537;19;20133;-79
2023/01/19 06:49:42;;;;;;;5.83;2.73;;;;;-7.00;92850.00;;;;7404827;19;20116;-79
2023/01/19 06:52:17;;;;;;;7.20;3.33;;;;;-6.70;92852.00;;;;7402419;19;20116;-79
2023/01/19 06:54:45;;;;;;;6.20;3.40;;;;;-6.50;92850.00;;;;7404327;19;20591;-79
2023/01/19 06:57:18;;;;;;;7.90;3.00;;;;;-6.40;92860.00;;;;7403951;19;20590;-79
2023/01/19 06:59:47;;;;;;;4.57;3.07;;;;;-6.60;92859.00;;;;7404292;19;20465;-79
2023/01/19 07:02:22;;;;;;;7.60;3.30;;;;;-6.30;92861.00;;;;7400316;19;20172;-79
2023/01/19 07:04:53;;;;;;;5.53;2.87;;;;;-6.00;92871.00;;;;7401844;19;20176;-79
2023/01/19 07:07:27;;;;;;;5.20;3.40;;;;;-5.60;92862.00;;;;7403881;19;20146;-79
2023/01/19 07:10:00;;;;;;;6.13;3.30;;;;;-5.40;92881.00;;;;7404207;19;20592;-79
2023/01/19 07:12:35;;;;;;;6.73;3.10;;;;;-5.00;92869.00;;;;7401622;19;20148;-79
2023/01/19 07:15:10;;;;;;;6.17;3.70;;;;;-4.70;92882.00;;;;7402275;19;20165;-79
2023/01/19 07:17:58;;;;;;;6.07;3.43;;;;;-4.60;92881.00;;;;7401812;19;20152;-79
2023/01/19 07:20:36;;;;;;;5.30;3.53;;;;;-4.40;92884.00;;;;7403352;19;20140;-79
2023/01/19 07:23:13;;;;;;;8.93;4.10;;;;;-4.30;92886.00;;;;7401689;19;20148;-79
2023/01/19 07:25:43;;;;;;;6.23;4.00;;;;;-4.30;92876.00;;;;7401193;19;20129;-79
2023/01/19 07:28:17;;;;;;;6.13;3.90;;;;;-4.30;92890.00;;;;7402170;19;20133;-79
2023/01/19 07:30:45;;;;;;;6.63;4.07;;;;;-4.30;92891.00;;;;7402998;19;20119;-79
2023/01/19 07:33:21;;;;;;;12.50;7.37;;;;;-4.20;92884.00;;;;7401233;19;20135;-80
2023/01/19 07:35:51;;;;;;;7.60;4.67;;;;;-4.20;92890.00;;;;7402040;19;20154;-80
2023/01/19 07:38:31;;;;;;;6.43;4.17;;;;;-4.20;92897.00;;;;7403151;19;20158;-80
2023/01/19 07:41:08;;;;;;;12.17;4.97;;;;;-4.00;92891.00;;;;7400869;19;20134;-80
2023/01/19 07:43:42;;;;;;;10.73;4.47;;;;;-4.10;92890.00;;;;7402386;19;20129;-79
2023/01/19 07:46:09;;;;;;;9.57;4.37;;;;;-4.10;92887.00;;;;7400320;19;20133;-79
2023/01/19 07:48:45;;;;;;;9.20;4.77;;;;;-4.10;92891.00;;;;7402196;19;20126;-79
2023/01/19 07:51:17;;;;;;;7.83;4.80;;;;;-3.90;92880.00;;;;7402060;19;20136;-79
2023/01/19 07:53:51;;;;;;;8.97;5.50;;;;;-3.80;92888.00;;;;7401848;19;20150;-80
2023/01/19 07:56:26;;;;;;;7.33;5.17;;;;;-3.80;92891.00;;;;7402220;19;20122;-80
2023/01/19 07:58:56;;;;;;;9.23;6.10;;;;;-3.80;92888.00;;;;7401729;19;20608;-80
2023/01/19 08:01:30;;;;;;;9.30;5.27;;;;;-3.80;92874.00;;;;7400976;19;20479;-79
2023/01/19 08:03:58;;;;;;;9.27;5.60;;;;;-3.90;92879.00;;;;7399299;19;20217;-79
2023/01/19 08:06:38;;;;;;;8.63;5.50;;;;;-3.90;92886.00;;;;7402639;19;20131;-80
2023/01/19 08:09:12;;;;;;;12.03;5.47;;;;;-3.50;92883.00;;;;7400949;19;20136;-80
2023/01/19 08:11:39;;;;;;;9.87;4.93;;;;;-3.30;92894.00;;;;7399530;19;20181;-79
2023/01/19 08:14:14;;;;;;;8.37;5.07;;;;;-3.20;92903.00;;;;7397367;19;20147;-80
2023/01/19 08:16:43;;;;;;;11.57;6.10;;;;;-3.40;92896.00;;;;7398685;19;20157;-79
2023/01/19 08:19:23;;;;;;;12.87;7.07;;;;;-3.30;92890.00;;;;7401095;19;20143;-80
2023/01/19 08:21:58;;;;;;;11.27;7.07;;;;;-3.30;92902.00;;;;7400260;19;20129;-80
2023/01/19 08:24:34;;;;;;;12.27;6.40;;;;;-3.10;92907.00;;;;7399786;19;20908;-80
2023/01/19 08:27:02;;;;;;;10.37;5.93;;;;;-3.10;92906.00;;;;7400905;19;20127;-80
2023/01/19 08:29:39;;;;;;;9.13;6.07;;;;;-3.10;92915.00;;;;7399102;19;20152;-79
2023/01/19 08:32:13;;;;;;;10.67;6.20;;;;;-3.20;92914.00;;;;7400662;19;20125;-79
2023/01/19 08:34:47;;;;;;;10.63;5.30;;;;;-3.20;92921.00;;;;7400428;19;20133;-79
2023/01/19 08:37:15;;;;;;;9.03;5.80;;;;;-3.20;92920.00;;;;7399218;19;20513;-80
2023/01/19 08:39:49;;;;;;;11.00;6.67;;;;;-3.00;92923.00;;;;7400946;19;20150;-80
2023/01/19 08:42:16;;;;;;;9.23;6.20;;;;;-2.80;92920.00;;;;7399708;19;20437;-80
2023/01/19 08:44:50;;;;;;;10.07;6.20;;;;;-2.50;92917.00;;;;7399510;19;20133;-79
2023/01/19 08:47:24;;;;;;;12.00;7.13;;;;;-1.70;92913.00;;;;7399408;19;20121;-79
2023/01/19 08:50:00;;;;;;;11.77;6.13;;;;;-1.40;92917.00;;;;7399517;19;20116;-80
2023/01/19 08:52:29;;;;;;;14.03;7.27;;;;;-1.60;92921.00;;;;7399793;19;20148;-79
2023/01/19 08:55:03;;;;;;;9.77;6.70;;;;;-1.70;92923.00;;;;7399643;19;20184;-80
2023/01/19 08:57:37;;;;;;;11.77;6.50;;;;;-1.90;92916.00;;;;7399253;19;20588;-80
2023/01/19 09:00:06;;;;;;;10.97;6.53;;;;;-1.70;92923.00;;;;7399229;19;20120;-79
2023/01/19 09:02:40;;;;;;;10.57;6.53;;;;;-1.60;92923.00;;;;7398624;19;20140;-80
2023/01/19 09:05:14;;;;;;;9.90;5.97;;;;;-1.90;92932.00;;;;7398602;19;20588;-79
2023/01/19 09:07:44;;;;;;;9.67;6.30;;;;;-1.80;92930.00;;;;7398878;19;20133;-79
2023/01/19 09:10:18;;;;;;;8.93;6.03;;;;;-1.80;92936.00;;;;7398420;19;20121;-79
2023/01/19 09:12:46;;;;;;;8.50;5.93;;;;;-1.80;92939.00;;;;7398964;19;20139;-80
2023/01/19 09:15:20;;;;;;;9.60;6.57;;;;;-1.70;92938.00;;;;7398556;19;20127;-80
2023/01/19 09:18:01;;;;;;;11.47;5.97;;;;;-1.70;92936.00;;;;7395870;19;20159;-80
2023/01/19 09:20:37;;;;;;;9.43;5.70;;;;;-1.70;92937.00;;;;7398501;19;20139;-79
2023/01/19 09:23:15;;;;;;;11.37;6.73;;;;;-1.70;92942.00;;;;7398951;19;20132;-79
2023/01/19 09:25:45;;;;;;;11.67;6.57;;;;;-1.70;92942.00;;;;7396468;19;20596;-79
2023/01/19 09:28:19;;;;;;;9.70;5.60;;;;;-1.70;92934.00;;;;7398676;19;20132;-80
2023/01/19 09:30:47;;;;;;;13.00;6.43;;;;;-1.60;92934.00;;;;7398122;19;20208;-79
2023/01/19 09:33:23;;;;;;;10.53;6.57;;;;;-1.40;92933.00;;;;7398960;19;20583;-79
2023/01/19 09:35:57;;;;;;;12.43;5.77;;;;;-1.40;92937.00;;;;7398078;19;20144;-79
2023/01/19 09:38:31;;;;;;;8.90;6.07;;;;;-1.30;92938.00;;;;7398294;19;20139;-79
2023/01/19 09:41:19;;;;;;;7.67;6.03;;;;;-1.50;92929.00;;;;7398500;19;20141;-79
2023/01/19 09:43:58;;;;;;;9.37;6.07;;;;;-1.20;92938.00;;;;7397777;19;20214;-79
2023/01/19 09:46:39;;;;;;;9.53;6.50;;;;;-1.10;92935.00;;;;7396539;19;20121;-79
2023/01/19 09:49:29;;;;;;;9.93;6.50;;;;;-1.00;92939.00;;;;7397846;19;20591;-79
2023/01/19 09:52:13;;;;;;;8.70;6.07;;;;;-0.70;92926.00;;;;7398019;19;20591;-79
2023/01/19 09:54:51;;;;;;;13.80;6.33;;;;;-0.70;92933.00;;;;7389216;19;20136;-79
2023/01/19 09:57:26;;;;;;;8.73;6.37;;;;;-0.70;92937.00;;;;7395464;19;20133;-79
2023/01/19 10:00:01;;;;;;;8.60;6.17;;;;;-0.30;92927.00;;;;7395147;19;20152;-79
2023/01/19 10:02:42;;;;;;;7.80;5.67;;;;;0.00;92937.00;;;;7393421;19;20161;-79
2023/01/19 10:05:38;;;;;;;9.07;5.17;;;;;0.00;92938.00;;;;7392948;19;20172;-78
2023/01/19 10:08:31;;;;;;;8.20;5.77;;;;;-0.10;92935.00;;;;7395882;19;20147;-77
2023/01/19 10:11:03;;;;;;;8.10;4.73;;;;;0.10;92940.00;;;;7395364;19;20135;-77
2023/01/19 10:13:48;;;;;;;5.53;4.03;;;;;0.30;92917.00;;;;7396985;19;20437;-78
2023/01/19 10:16:39;;;;;;;7.80;3.60;;;;;1.50;92882.00;;;;7393198;19;20468;-77
2023/01/19 10:19:29;;;;;;;5.50;3.70;;;;;3.10;92880.00;;;;7395141;19;20584;-78
2023/01/19 10:21:59;;;;;;;4.80;3.40;;;;;3.50;92899.00;;;;7394537;19;20145;-78
2023/01/19 10:24:39;;;;;;;8.17;3.93;;;;;3.00;92909.00;;;;7396110;19;20467;-78
2023/01/19 10:27:19;;;;;;;5.97;3.10;;;;;2.90;92926.00;;;;7396551;19;20456;-78
2023/01/19 10:29:47;;;;;;;5.30;3.60;;;;;2.60;92922.00;;;;7395473;19;20133;-77
2023/01/19 10:32:26;;;;;;;5.90;4.33;;;;;2.10;92925.00;;;;7395322;19;20133;-79
2023/01/19 10:35:20;;;;;;;6.57;3.97;;;;;1.90;92932.00;;;;7395598;19;20204;-79
2023/01/19 10:37:58;;;;;;;7.50;4.20;;;;;2.70;92904.00;;;;7399877;19;20153;-79
2023/01/19 10:40:42;;;;;;;6.77;3.97;;;;;2.70;92916.00;;;;7402778;19;20591;-77
2023/01/19 10:43:36;;;;;;;5.33;3.77;;;;;2.20;92935.00;;;;7402418;19;20116;-79
2023/01/19 10:46:22;;;;;;;7.10;3.47;;;;;1.80;92942.00;;;;7401555;19;20140;-78
2023/01/19 10:48:51;;;;;;;6.07;3.63;;;;;1.50;92939.00;;;;7402947;19;20145;-78
2023/01/19 10:51:25;;;;;;;5.57;3.70;;;;;0.90;92936.00;;;;7400660;19;20160;-78
2023/01/19 10:54:04;;;;;;;7.87;3.90;;;;;0.70;92950.00;;;;7403118;19;20137;-77
2023/01/19 10:56:38;;;;;;;4.60;3.53;;;;;0.80;92944.00;;;;7402934;19;20120;-79
2023/01/19 10:59:27;;;;;;;5.10;3.73;;;;;0.80;92943.00;;;;7400695;19;20168;-78
2023/01/19 11:02:26;;;;;;;5.03;3.37;;;;;0.70;92931.00;;;;7401496;19;20168;-78
2023/01/19 11:04:59;;;;;;;5.07;3.40;;;;;1.20;92934.00;;;;7400550;19;20457;-78
2023/01/19 11:07:34;;;;;;;6.80;3.80;;;;;1.70;92937.00;;;;7400162;19;20148;-77
2023/01/19 11:10:11;;;;;;;6.43;3.43;;;;;1.40;92945.00;;;;7389801;19;20133;-78
2023/01/19 11:12:59;;;;;;;7.00;2.97;;;;;1.00;92958.00;;;;7399178;19;20145;-78
2023/01/19 11:15:30;;;;;;;4.90;3.23;;;;;0.90;92949.00;;;;7402244;19;20469;-78
2023/01/19 11:18:11;;;;;;;4.17;2.40;;;;;0.70;92958.00;;;;7400462;19;20545;-78
2023/01/19 11:20:51;;;;;;;3.07;2.00;;;;;0.30;92952.00;;;;7401842;19;20136;-77
2023/01/19 11:23:27;;;;;;;3.80;2.30;;;;;0.00;92963.00;;;;7400092;19;20680;-77
2023/01/19 11:26:03;;;;;;;3.80;1.90;;;;;0.00;92966.00;;;;7400680;19;20133;-77
2023/01/19 11:28:44;;;;;;;2.43;1.70;;;;;-0.30;92960.00;;;;7402366;19;20137;-77
2023/01/19 11:31:16;;;;;;;3.33;2.17;;;;;0.20;92951.00;;;;7400280;19;20134;-77
2023/01/19 11:33:53;;;;;;;4.10;2.13;;;;;0.40;92952.00;;;;7401154;19;20136;-77
2023/01/19 11:36:33;;;;;;;3.53;2.10;;;;;0.40;92947.00;;;;7401379;19;20587;-77
2023/01/19 11:39:25;;;;;;;2.17;1.87;;;;;0.50;92955.00;;;;7401622;19;20600;-77
2023/01/19 11:41:56;;;;;;;2.23;1.50;;;;;0.40;92954.00;;;;7398615;19;20132;-77
2023/01/19 11:44:34;;;;;;;4.10;1.83;;;;;0.00;92945.00;;;;7399531;19;20133;-77
2023/01/19 11:47:17;;;;;;;2.97;2.10;;;;;0.10;92949.00;;;;7398847;19;20128;-77
2023/01/19 11:49:58;;;;;;;2.33;1.80;;;;;-0.10;92941.00;;;;7396871;19;20139;-78
2023/01/19 11:52:41;;;;;;;2.10;1.70;;;;;-0.40;92943.00;;;;7399780;19;20173;-78
2023/01/19 11:55:31;;;;;;;2.83;1.80;;;;;-0.20;92937.00;;;;7399243;19;20153;-77
2023/01/19 11:58:06;;;;;;;1.87;1.70;;;;;0.20;92935.00;;;;7399067;19;20149;-77
2023/01/19 12:00:57;;;;;;;2.17;1.60;;;;;0.20;92940.00;;;;7399510;19;20123;-77
2023/01/19 12:03:39;;;;;;;2.93;1.93;;;;;0.60;92938.00;;;;7398446;19;20145;-77
2023/01/19 12:06:22;;;;;;;2.13;1.60;;;;;0.30;92937.00;;;;7397691;19;20148;-77
2023/01/19 12:08:55;;;;;;;2.93;1.80;;;;;0.00;92938.00;;;;7396211;19;20587;-77
2023/01/19 12:11:52;;;;;;;2.73;2.00;;;;;-0.30;92954.00;;;;7399067;19;20158;-77
2023/01/19 12:14:48;;;;;;;3.30;1.60;;;;;-0.40;92952.00;;;;7398535;19;20145;-77
2023/01/19 12:17:26;;;;;;;2.63;1.83;;;;;-0.90;92940.00;;;;7399399;19;20220;-77
2023/01/19 12:20:34;;;;;;;2.77;1.90;;;;;-1.00;92946.00;;;;7399781;19;20140;-78
2023/01/19 12:23:13;;;;;;;2.03;1.60;;;;;-0.90;92948.00;;;;7400219;19;20143;-77
2023/01/19 12:26:03;;;;;;;2.77;1.80;;;;;-0.70;92949.00;;;;7397530;19;20129;-77
2023/01/19 12:28:47;;;;;;;2.67;2.03;;;;;-0.60;92948.00;;;;7399221;19;20137;-77
2023/01/19 12:31:22;;;;;;;3.50;2.10;;;;;-0.40;92948.00;;;;7398652;19;20125;-77
2023/01/19 12:34:22;;;;;;;5.33;2.50;;;;;-0.50;92949.00;;;;7397471;19;20144;-77
2023/01/19 12:37:00;;;;;;;4.40;2.10;;;;;-0.80;92947.00;;;;7399206;19;20140;-77
2023/01/19 12:39:27;;;;;;;2.90;2.40;;;;;-0.80;92952.00;;;;7397936;19;20140;-78
2023/01/19 12:42:16;;;;;;;3.23;2.23;;;;;-0.60;92946.00;;;;7398477;19;20196;-79
2023/01/19 12:44:47;;;;;;;3.27;2.33;;;;;-0.80;92943.00;;;;7397378;19;20632;-78
2023/01/19 12:47:23;;;;;;;2.97;2.30;;;;;-0.80;92938.00;;;;7397754;19;20142;-78
2023/01/19 12:49:55;;;;;;;5.53;2.50;;;;;-0.90;92938.00;;;;7399266;19;20599;-79
2023/01/19 12:52:39;;;;;;;4.17;2.73;;;;;-0.60;92945.00;;;;7398867;19;20169;-78
2023/01/19 12:55:13;;;;;;;3.80;2.50;;;;;-0.30;92946.00;;;;7399331;19;20147;-78
2023/01/19 12:57:52;;;;;;;3.90;2.23;;;;;-0.60;92948.00;;;;7397959;19;20139;-78
2023/01/19 13:00:23;;;;;;;2.67;2.40;;;;;-0.70;92941.00;;;;7396532;19;20614;-78
2023/01/19 13:03:03;;;;;;;3.70;2.40;;;;;-0.10;92940.00;;;;7397200;19;20137;-77
2023/01/19 13:05:42;;;;;;;4.17;2.73;;;;;-0.70;92948.00;;;;7398248;19;20679;-77
2023/01/19 13:08:12;;;;;;;3.53;2.70;;;;;-0.20;92950.00;;;;7398228;19;20131;-77
2023/01/19 13:11:14;;;;;;;5.13;2.70;;;;;-0.90;92953.00;;;;7395749;19;20135;-78